createdAt,value
2019-02-24T00:01:17.983Z,99.90
2019-02-24T00:03:49.306Z,99.90
2019-02-24T00:06:20.083Z,99.90
2019-02-24T00:08:51.003Z,99.90
2019-02-24T00:11:22.021Z,99.90
2019-02-24T00:13:52.858Z,99.90
2019-02-24T00:16:23.672Z,99.90
2019-02-24T00:18:54.434Z,99.90
2019-02-24T00:21:25.223Z,99.90
2019-02-24T00:23:56.015Z,99.90
2019-02-24T00:26:26.967Z,99.90
2019-02-24T00:28:57.789Z,99.90
2019-02-24T00:31:29.669Z,99.90
2019-02-24T00:34:00.570Z,99.90
2019-02-24T00:36:31.400Z,99.90
2019-02-24T00:39:03.523Z,99.90
2019-02-24T00:41:36.078Z,99.90
2019-02-24T00:44:06.967Z,99.90
2019-02-24T00:46:37.878Z,99.90
2019-02-24T00:49:27.730Z,99.90
2019-02-24T00:51:58.654Z,99.90
2019-02-24T00:54:29.681Z,99.90
2019-02-24T00:57:01.579Z,99.90
2019-02-24T00:59:33.363Z,99.90
2019-02-24T01:02:04.225Z,99.90
2019-02-24T01:04:35.214Z,99.90
2019-02-24T01:07:09.637Z,99.90
2019-02-24T01:09:40.454Z,99.90
2019-02-24T01:12:11.258Z,99.90
2019-02-24T01:14:42.051Z,99.90
2019-02-24T01:17:12.880Z,99.90
2019-02-24T01:19:43.738Z,99.90
2019-02-24T01:22:14.543Z,99.90
2019-02-24T01:24:45.435Z,99.90
2019-02-24T01:27:16.203Z,99.90
2019-02-24T01:29:47.017Z,99.90
2019-02-24T01:32:17.815Z,99.90
2019-02-24T01:34:48.627Z,99.90
2019-02-24T01:37:19.543Z,99.90
2019-02-24T01:39:50.352Z,99.90
2019-02-24T01:42:22.966Z,99.90
2019-02-24T01:44:53.772Z,99.90
2019-02-24T01:47:26.578Z,99.90
2019-02-24T01:49:57.393Z,99.90
2019-02-24T01:52:28.310Z,99.90
2019-02-24T01:54:59.168Z,99.90
2019-02-24T01:57:30.012Z,99.90
2019-02-24T02:00:03.341Z,99.90
2019-02-24T02:02:37.721Z,99.90
2019-02-24T02:05:08.569Z,99.90
2019-02-24T02:07:41.183Z,99.90
2019-02-24T02:10:12.087Z,99.90
2019-02-24T02:12:42.997Z,99.90
2019-02-24T02:15:13.820Z,99.90
2019-02-24T02:17:44.627Z,99.90
2019-02-24T02:20:15.591Z,99.90
2019-02-24T02:22:46.385Z,99.90
2019-02-24T02:25:17.167Z,99.90
2019-02-24T02:27:47.933Z,99.90
2019-02-24T02:30:18.866Z,99.90
2019-02-24T02:32:49.692Z,99.90
2019-02-24T02:35:20.476Z,99.90
2019-02-24T02:37:51.282Z,99.90
2019-02-24T02:40:23.142Z,99.90
2019-02-24T02:42:54.283Z,99.90
2019-02-24T02:45:25.144Z,99.90
2019-02-24T02:47:55.911Z,99.90
2019-02-24T02:50:26.715Z,99.90
2019-02-24T02:52:57.508Z,99.90
2019-02-24T02:55:28.295Z,99.90
2019-02-24T02:57:59.074Z,99.90
2019-02-24T03:00:32.171Z,99.90
2019-02-24T03:03:03.906Z,99.90
2019-02-24T03:05:34.928Z,99.90
2019-02-24T03:08:08.631Z,99.90
2019-02-24T03:10:39.448Z,99.90
2019-02-24T03:13:10.305Z,99.90
2019-02-24T03:15:41.165Z,99.90
2019-02-24T03:18:11.964Z,99.90
2019-02-24T03:20:42.781Z,99.90
2019-02-24T03:23:13.729Z,99.90
2019-02-24T03:25:44.557Z,99.90
2019-02-24T03:28:15.550Z,99.90
2019-02-24T03:30:46.335Z,99.90
2019-02-24T03:33:17.140Z,99.90
2019-02-24T03:35:48.034Z,99.90
2019-02-24T03:38:18.940Z,99.90
2019-02-24T03:40:49.750Z,99.90
2019-02-24T03:43:20.519Z,99.90
2019-02-24T03:45:51.335Z,99.90
2019-02-24T03:48:22.113Z,99.90
2019-02-24T03:50:52.885Z,99.90
2019-02-24T03:53:23.665Z,99.90
2019-02-24T03:55:54.639Z,99.90
2019-02-24T03:58:25.442Z,99.90
2019-02-24T04:00:57.202Z,99.90
2019-02-24T04:03:29.047Z,99.90
2019-02-24T04:05:59.979Z,99.90
2019-02-24T04:08:30.995Z,99.90
2019-02-24T04:11:01.799Z,99.90
2019-02-24T04:13:32.639Z,99.90
2019-02-24T04:16:03.425Z,99.90
2019-02-24T04:18:34.320Z,99.90
2019-02-24T04:21:05.114Z,99.90
2019-02-24T04:23:35.894Z,99.90
2019-02-24T04:26:06.684Z,99.90
2019-02-24T04:28:37.479Z,99.90
2019-02-24T04:31:08.245Z,99.90
2019-02-24T04:33:39.046Z,99.90
2019-02-24T04:36:13.072Z,99.90
2019-02-24T04:38:43.849Z,99.90
2019-02-24T04:41:14.645Z,99.90
2019-02-24T04:43:45.441Z,99.90
2019-02-24T04:46:16.220Z,99.90
2019-02-24T04:48:46.994Z,99.90
2019-02-24T04:51:17.811Z,99.90
2019-02-24T04:53:48.631Z,99.90
2019-02-24T04:56:19.415Z,99.90
2019-02-24T04:58:50.247Z,99.90
2019-02-24T05:01:21.070Z,99.90
2019-02-24T05:03:52.002Z,99.90
2019-02-24T05:06:22.904Z,99.90
2019-02-24T05:08:53.735Z,99.90
2019-02-24T05:11:24.591Z,99.90
2019-02-24T05:13:55.358Z,99.90
2019-02-24T05:16:26.187Z,99.90
2019-02-24T05:18:57.119Z,99.90
2019-02-24T05:21:29.084Z,99.90
2019-02-24T05:24:01.857Z,99.90
2019-02-24T05:26:32.634Z,99.90
2019-02-24T05:29:03.407Z,99.90
2019-02-24T05:31:34.237Z,99.90
2019-02-24T05:34:29.849Z,99.90
2019-02-24T05:37:01.714Z,99.90
2019-02-24T05:39:32.561Z,99.90
2019-02-24T05:42:03.468Z,99.90
2019-02-24T05:44:34.644Z,99.90
2019-02-24T05:47:05.454Z,99.90
2019-02-24T05:49:36.329Z,99.90
2019-02-24T05:52:07.110Z,99.90
2019-02-24T05:54:37.909Z,99.90
2019-02-24T05:57:08.757Z,99.90
2019-02-24T05:59:39.533Z,99.90
2019-02-24T06:02:10.458Z,99.90
2019-02-24T06:04:41.323Z,99.90
2019-02-24T06:07:12.163Z,99.90
2019-02-24T06:09:42.958Z,99.90
2019-02-24T06:12:13.852Z,99.90
2019-02-24T06:14:44.778Z,99.90
2019-02-24T06:17:15.582Z,99.90
2019-02-24T06:19:46.482Z,99.90
2019-02-24T06:22:17.350Z,99.90
2019-02-24T06:24:48.141Z,99.90
2019-02-24T06:27:18.936Z,99.90
2019-02-24T06:29:49.730Z,99.90
2019-02-24T06:32:20.546Z,99.90
2019-02-24T06:34:51.312Z,99.90
2019-02-24T06:37:22.154Z,99.90
2019-02-24T06:39:53.113Z,99.90
2019-02-24T06:42:23.939Z,99.90
2019-02-24T06:44:54.772Z,99.90
2019-02-24T06:47:25.709Z,99.90
2019-02-24T06:49:57.710Z,99.90
2019-02-24T06:52:28.540Z,99.90
2019-02-24T06:54:59.428Z,99.90
2019-02-24T06:57:31.652Z,99.90
2019-02-24T07:00:03.863Z,99.90
2019-02-24T07:02:56.593Z,99.90
2019-02-24T07:05:27.610Z,99.90
2019-02-24T07:07:58.653Z,99.90
2019-02-24T07:10:29.454Z,99.90
2019-02-24T07:13:00.242Z,99.90
2019-02-24T07:15:31.117Z,99.90
2019-02-24T07:18:01.992Z,99.90
2019-02-24T07:20:32.864Z,99.90
2019-02-24T07:23:03.723Z,99.90
2019-02-24T07:25:34.628Z,99.90
2019-02-24T07:28:05.706Z,99.90
2019-02-24T07:30:36.499Z,99.90
2019-02-24T07:33:07.383Z,99.90
2019-02-24T07:35:38.314Z,99.90
2019-02-24T07:38:09.119Z,99.90
2019-02-24T07:40:39.993Z,99.90
2019-02-24T07:43:10.776Z,99.90
2019-02-24T07:45:41.695Z,99.90
2019-02-24T07:48:12.594Z,99.90
2019-02-24T07:50:43.598Z,99.90
2019-02-24T07:53:14.459Z,99.90
2019-02-24T07:55:45.411Z,99.90
2019-02-24T07:58:16.249Z,99.90
2019-02-24T08:00:47.652Z,99.90
2019-02-24T08:03:19.450Z,99.90
2019-02-24T08:05:52.681Z,99.90
2019-02-24T08:08:23.768Z,99.90
2019-02-24T08:10:54.625Z,99.90
2019-02-24T08:13:26.486Z,99.90
2019-02-24T08:15:57.311Z,99.90
2019-02-24T08:18:28.168Z,99.90
2019-02-24T08:20:59.037Z,99.90
2019-02-24T08:23:29.880Z,99.90
2019-02-24T08:26:00.669Z,99.90
2019-02-24T08:28:31.584Z,99.90
2019-02-24T08:31:02.424Z,99.90
2019-02-24T08:33:33.295Z,99.90
2019-02-24T08:36:04.107Z,99.90
2019-02-24T08:38:35.021Z,99.90
2019-02-24T08:41:05.929Z,99.90
2019-02-24T08:43:36.924Z,99.90
2019-02-24T08:46:08.803Z,99.90
2019-02-24T08:48:40.291Z,99.90
2019-02-24T08:51:11.189Z,99.90
2019-02-24T08:53:42.055Z,99.90
2019-02-24T08:56:12.870Z,99.90
2019-02-24T08:58:43.807Z,99.90
2019-02-24T09:01:16.452Z,99.90
2019-02-24T09:03:47.331Z,99.90
2019-02-24T09:06:18.423Z,99.90
2019-02-24T09:08:49.755Z,99.90
2019-02-24T09:11:20.584Z,99.90
2019-02-24T09:13:51.714Z,99.90
2019-02-24T09:16:22.520Z,99.90
2019-02-24T09:18:53.340Z,99.90
2019-02-24T09:21:24.137Z,99.90
2019-02-24T09:23:54.964Z,99.90
2019-02-24T09:26:26.179Z,99.90
2019-02-24T09:28:56.951Z,99.90
2019-02-24T09:31:27.763Z,99.90
2019-02-24T09:34:02.652Z,99.90
2019-02-24T09:36:33.590Z,99.90
2019-02-24T09:39:05.259Z,99.90
2019-02-24T09:41:36.446Z,99.90
2019-02-24T09:44:07.271Z,99.90
2019-02-24T09:46:38.306Z,99.90
2019-02-24T09:49:09.405Z,99.90
2019-02-24T09:51:42.071Z,99.90
2019-02-24T09:54:13.114Z,99.90
2019-02-24T09:56:44.051Z,99.90
2019-02-24T09:59:15.280Z,99.90
2019-02-24T10:01:49.643Z,99.90
2019-02-24T10:04:20.647Z,99.90
2019-02-24T10:06:52.700Z,99.90
2019-02-24T10:09:23.823Z,99.90
2019-02-24T10:11:54.834Z,99.90
2019-02-24T10:14:25.763Z,99.90
2019-02-24T10:16:58.492Z,99.90
2019-02-24T10:19:31.198Z,99.90
2019-02-24T10:22:01.918Z,99.90
2019-02-24T10:24:32.744Z,99.90
2019-02-24T10:27:03.678Z,99.90
2019-02-24T10:29:34.591Z,99.90
2019-02-24T10:32:05.559Z,99.90
2019-02-24T10:34:36.532Z,99.90
2019-02-24T10:37:07.435Z,99.90
2019-02-24T10:39:38.406Z,99.90
2019-02-24T10:42:09.298Z,99.90
2019-02-24T10:44:40.232Z,97.60
2019-02-24T10:47:11.062Z,98.70
2019-02-24T10:49:41.901Z,97.50
2019-02-24T10:52:12.934Z,96.50
2019-02-24T10:54:44.020Z,95.60
2019-02-24T10:57:15.012Z,89.70
2019-02-24T10:59:46.934Z,92.10
2019-02-24T11:02:19.192Z,84.00
2019-02-24T11:04:50.059Z,73.60
2019-02-24T11:07:22.018Z,72.60
2019-02-24T11:09:52.898Z,79.00
2019-02-24T11:12:23.825Z,72.70
2019-02-24T11:14:54.877Z,67.60
2019-02-24T11:17:25.789Z,68.70
2019-02-24T11:19:56.739Z,70.90
2019-02-24T11:22:27.552Z,62.80
2019-02-24T11:25:01.199Z,59.20
2019-02-24T11:27:32.159Z,60.90
2019-02-24T11:30:03.052Z,54.70
2019-02-24T11:32:35.733Z,63.60
2019-02-24T11:35:06.682Z,60.60
2019-02-24T11:37:37.806Z,48.90
2019-02-24T11:40:10.706Z,50.40
2019-02-24T11:42:41.796Z,49.70
2019-02-24T11:45:12.799Z,47.70
2019-02-24T11:47:43.620Z,47.00
2019-02-24T11:50:17.305Z,48.00
2019-02-24T11:53:00.035Z,47.80
2019-02-24T11:55:30.898Z,49.50
2019-02-24T11:58:01.783Z,52.10
2019-02-24T12:00:32.713Z,47.30
2019-02-24T12:03:04.211Z,50.00
2019-02-24T12:05:36.265Z,51.70
2019-02-24T12:08:07.672Z,45.30
2019-02-24T12:10:38.592Z,44.10
2019-02-24T12:13:08.413Z,52.50
2019-02-24T12:15:38.071Z,45.20
2019-02-24T12:18:08.877Z,47.30
2019-02-24T12:20:43.590Z,43.30
2019-02-24T12:23:15.482Z,46.90
2019-02-24T12:25:46.397Z,45.00
2019-02-24T12:28:17.220Z,46.60
2019-02-24T12:30:48.044Z,42.10
2019-02-24T12:33:19.133Z,46.30
2019-02-24T12:35:50.042Z,46.90
2019-02-24T12:38:20.933Z,44.70
2019-02-24T12:40:51.747Z,45.30
2019-02-24T12:43:22.705Z,45.60
2019-02-24T12:45:53.531Z,40.40
2019-02-24T12:48:24.468Z,45.50
2019-02-24T12:50:55.302Z,37.80
2019-02-24T12:53:27.623Z,41.30
2019-02-24T12:55:58.506Z,41.50
2019-02-24T12:58:34.170Z,39.60
2019-02-24T13:01:05.424Z,38.30
2019-02-24T13:03:37.484Z,41.70
2019-02-24T13:06:08.404Z,46.50
2019-02-24T13:08:40.313Z,45.50
2019-02-24T13:11:11.476Z,42.00
2019-02-24T13:13:42.470Z,43.30
2019-02-24T13:16:13.489Z,42.00
2019-02-24T13:18:44.493Z,40.90
2019-02-24T13:21:16.475Z,37.30
2019-02-24T13:23:47.328Z,42.30
2019-02-24T13:26:18.325Z,41.80
2019-02-24T13:28:50.736Z,44.60
2019-02-24T13:31:21.671Z,41.60
2019-02-24T13:33:52.517Z,43.50
2019-02-24T13:36:23.390Z,43.40
2019-02-24T13:38:56.033Z,40.70
2019-02-24T13:41:26.871Z,41.40
2019-02-24T13:43:57.719Z,40.30
2019-02-24T13:46:28.634Z,43.40
2019-02-24T13:48:59.551Z,38.70
2019-02-24T13:51:30.438Z,43.10
2019-02-24T13:54:01.262Z,40.10
2019-02-24T13:56:32.113Z,40.20
2019-02-24T13:59:02.962Z,42.30
2019-02-24T14:01:33.876Z,40.10
2019-02-24T14:04:06.205Z,39.70
2019-02-24T14:06:37.147Z,39.70
2019-02-24T14:09:09.344Z,41.00
2019-02-24T14:11:40.349Z,36.40
2019-02-24T14:14:11.263Z,32.90
2019-02-24T14:16:43.138Z,38.00
2019-02-24T14:19:14.049Z,39.90
2019-02-24T14:21:44.886Z,35.50
2019-02-24T14:24:15.898Z,31.90
2019-02-24T14:26:46.829Z,35.80
2019-02-24T14:29:19.556Z,37.00
2019-02-24T14:31:50.416Z,35.20
2019-02-24T14:34:21.290Z,33.50
2019-02-24T14:36:53.348Z,31.30
2019-02-24T14:39:24.360Z,29.30
2019-02-24T14:42:01.009Z,33.10
2019-02-24T14:44:32.964Z,34.30
2019-02-24T14:47:03.808Z,35.50
2019-02-24T14:49:36.163Z,35.90
2019-02-24T14:52:07.011Z,37.30
2019-02-24T14:54:37.848Z,35.70
2019-02-24T14:57:08.882Z,32.30
2019-02-24T14:59:39.790Z,33.40
2019-02-24T15:02:10.733Z,37.70
2019-02-24T15:04:41.727Z,36.40
2019-02-24T15:07:12.507Z,37.20
2019-02-24T15:09:44.410Z,36.90
2019-02-24T15:12:15.399Z,37.10
2019-02-24T15:14:47.413Z,37.40
2019-02-24T15:17:18.246Z,34.20
2019-02-24T15:19:49.099Z,37.40
2019-02-24T15:22:19.930Z,37.30
2019-02-24T15:24:50.825Z,37.20
2019-02-24T15:27:21.905Z,37.70
2019-02-24T15:29:52.867Z,38.50
2019-02-24T15:32:23.974Z,37.70
2019-02-24T15:34:54.926Z,37.60
2019-02-24T15:37:29.604Z,37.30
2019-02-24T15:40:00.445Z,37.60
2019-02-24T15:42:31.353Z,38.60
2019-02-24T15:45:02.237Z,39.40
2019-02-24T15:47:33.281Z,36.30
2019-02-24T15:50:04.658Z,37.00
2019-02-24T15:52:36.242Z,37.90
2019-02-24T15:55:07.787Z,39.30
2019-02-24T15:57:38.725Z,39.90
2019-02-24T16:00:13.333Z,41.00
2019-02-24T16:02:44.215Z,40.40
2019-02-24T16:05:15.316Z,40.80
2019-02-24T16:07:46.379Z,40.80
2019-02-24T16:10:17.605Z,41.00
2019-02-24T16:12:48.653Z,41.60
2019-02-24T16:15:19.673Z,42.60
2019-02-24T16:17:50.678Z,42.80
2019-02-24T16:20:23.453Z,43.50
2019-02-24T16:22:54.442Z,44.20
2019-02-24T16:25:25.387Z,44.30
2019-02-24T16:27:56.338Z,45.50
2019-02-24T16:30:27.244Z,45.80
2019-02-24T16:32:58.108Z,46.60
2019-02-24T16:35:29.024Z,45.90
2019-02-24T16:37:59.921Z,46.30
2019-02-24T16:40:30.885Z,46.40
2019-02-24T16:43:02.095Z,46.90
2019-02-24T16:45:34.203Z,47.40
2019-02-24T16:48:05.333Z,47.80
2019-02-24T16:50:36.446Z,48.80
2019-02-24T16:53:07.523Z,49.80
2019-02-24T16:55:39.347Z,50.80
2019-02-24T16:58:10.357Z,52.00
2019-02-24T17:00:41.407Z,52.90
2019-02-24T17:03:19.664Z,53.50
2019-02-24T17:05:46.173Z,54.00
2019-02-24T17:08:18.162Z,54.70
2019-02-24T17:10:50.114Z,55.00
2019-02-24T17:13:21.319Z,56.00
2019-02-24T17:15:52.188Z,57.10
2019-02-24T17:18:23.130Z,58.00
2019-02-24T17:20:55.516Z,58.40
2019-02-24T17:23:37.850Z,58.00
2019-02-24T17:26:08.735Z,57.00
2019-02-24T17:28:39.749Z,57.90
2019-02-24T17:31:10.743Z,57.00
2019-02-24T17:33:41.755Z,58.00
2019-02-24T17:36:12.791Z,60.50
2019-02-24T17:38:43.764Z,62.40
2019-02-24T17:41:14.896Z,63.20
2019-02-24T17:43:45.904Z,64.30
2019-02-24T17:46:19.391Z,64.30
2019-02-24T17:48:50.558Z,64.40
2019-02-24T17:51:22.085Z,64.70
2019-02-24T17:53:54.176Z,65.70
2019-02-24T17:56:25.307Z,66.60
2019-02-24T17:58:56.206Z,66.90
2019-02-24T18:01:27.317Z,67.20
2019-02-24T18:03:58.775Z,68.10
2019-02-24T18:06:29.945Z,68.10
2019-02-24T18:09:00.911Z,66.70
2019-02-24T18:11:34.280Z,67.90
2019-02-24T18:14:05.240Z,68.70
2019-02-24T18:16:36.524Z,68.80
2019-02-24T18:19:07.533Z,69.20
2019-02-24T18:21:39.716Z,70.20
2019-02-24T18:24:10.794Z,71.10
2019-02-24T18:26:41.896Z,72.00
2019-02-24T18:29:13.945Z,73.10
2019-02-24T18:31:46.839Z,73.10
2019-02-24T18:34:17.923Z,73.00
2019-02-24T18:36:48.783Z,72.40
2019-02-24T18:39:19.764Z,71.80
2019-02-24T18:41:50.802Z,72.90
2019-02-24T18:44:21.804Z,75.20
2019-02-24T18:46:52.943Z,76.80
2019-02-24T18:49:25.859Z,75.50
2019-02-24T18:51:57.286Z,73.60
2019-02-24T18:54:34.656Z,77.30
2019-02-24T18:57:01.555Z,78.30
2019-02-24T18:59:32.695Z,78.90
2019-02-24T19:02:04.129Z,79.30
2019-02-24T19:04:35.156Z,80.90
2019-02-24T19:07:07.159Z,80.60
2019-02-24T19:09:39.412Z,81.50
2019-02-24T19:12:10.402Z,82.80
2019-02-24T19:14:41.621Z,82.80
2019-02-24T19:17:12.668Z,81.50
2019-02-24T19:19:43.688Z,83.50
2019-02-24T19:22:14.782Z,85.20
2019-02-24T19:24:45.732Z,85.20
2019-02-24T19:27:16.967Z,85.60
2019-02-24T19:29:48.057Z,86.10
2019-02-24T19:32:19.049Z,87.10
2019-02-24T19:34:51.882Z,86.20
2019-02-24T19:37:22.971Z,86.00
2019-02-24T19:39:54.092Z,88.40
2019-02-24T19:42:25.158Z,87.60
2019-02-24T19:44:56.263Z,88.00
2019-02-24T19:47:27.324Z,88.60
2019-02-24T19:49:58.466Z,89.10
2019-02-24T19:52:29.423Z,90.10
2019-02-24T19:55:00.593Z,90.60
2019-02-24T19:57:31.654Z,91.30
2019-02-24T20:00:02.713Z,91.90
2019-02-24T20:02:35.287Z,92.70
2019-02-24T20:05:06.753Z,93.60
2019-02-24T20:07:37.868Z,94.70
2019-02-24T20:10:09.566Z,96.40
2019-02-24T20:12:40.935Z,97.90
2019-02-24T20:15:13.074Z,99.10
2019-02-24T20:17:44.222Z,99.70
2019-02-24T20:20:15.696Z,99.90
2019-02-24T20:22:48.038Z,99.90
2019-02-24T20:25:19.067Z,99.90
2019-02-24T20:27:50.423Z,99.90
2019-02-24T20:30:23.468Z,99.90
2019-02-24T20:32:54.338Z,99.90
2019-02-24T20:35:25.323Z,99.90
2019-02-24T20:37:57.414Z,99.90
2019-02-24T20:40:28.421Z,99.90
2019-02-24T20:42:59.370Z,99.90
2019-02-24T20:45:30.239Z,99.90
2019-02-24T20:48:02.266Z,99.90
2019-02-24T20:50:33.613Z,99.90
2019-02-24T20:53:09.655Z,99.90
2019-02-24T20:55:40.608Z,99.90
2019-02-24T20:58:11.685Z,99.90
2019-02-24T21:00:44.013Z,99.90
2019-02-24T21:03:14.966Z,99.90
2019-02-24T21:05:45.839Z,99.90
2019-02-24T21:08:16.879Z,99.90
2019-02-24T21:10:47.952Z,99.90
2019-02-24T21:13:20.706Z,99.90
2019-02-24T21:15:51.718Z,99.90
2019-02-24T21:18:24.428Z,99.90
2019-02-24T21:20:56.492Z,99.90
2019-02-24T21:23:27.801Z,99.90
2019-02-24T21:25:58.877Z,99.90
2019-02-24T21:28:29.953Z,99.90
2019-02-24T21:31:02.034Z,99.90
2019-02-24T21:33:33.068Z,99.90
2019-02-24T21:36:03.947Z,99.90
2019-02-24T21:38:34.815Z,99.90
2019-02-24T21:41:05.742Z,99.90
2019-02-24T21:43:36.617Z,99.90
2019-02-24T21:46:07.541Z,99.90
2019-02-24T21:48:38.408Z,99.90
2019-02-24T21:51:09.383Z,99.90
2019-02-24T21:53:40.260Z,99.90
2019-02-24T21:56:11.672Z,99.90
2019-02-24T21:58:42.627Z,99.90
2019-02-24T22:01:13.534Z,99.90
2019-02-24T22:03:44.518Z,99.90
2019-02-24T22:06:15.361Z,99.90
2019-02-24T22:08:46.417Z,99.90
2019-02-24T22:11:17.388Z,99.90
2019-02-24T22:13:49.129Z,99.90
2019-02-24T22:16:19.954Z,99.90
2019-02-24T22:18:50.893Z,99.90
2019-02-24T22:21:21.811Z,99.90
2019-02-24T22:23:52.720Z,99.90
2019-02-24T22:26:23.631Z,99.90
2019-02-24T22:28:54.423Z,99.90
2019-02-24T22:31:25.295Z,99.90
2019-02-24T22:33:56.406Z,99.90
2019-02-24T22:36:29.106Z,99.90
2019-02-24T22:38:59.963Z,99.90
2019-02-24T22:41:30.870Z,99.90
2019-02-24T22:44:01.848Z,99.90
2019-02-24T22:46:32.749Z,99.90
2019-02-24T22:49:03.622Z,99.90
2019-02-24T22:51:35.523Z,99.90
2019-02-24T22:54:06.333Z,99.90
2019-02-24T22:56:37.195Z,99.90
2019-02-24T22:59:07.987Z,99.90
2019-02-24T23:01:40.150Z,99.90
2019-02-24T23:04:12.810Z,99.90
2019-02-24T23:06:44.278Z,99.90
2019-02-24T23:09:17.884Z,99.90
2019-02-24T23:11:49.114Z,99.90
2019-02-24T23:14:22.141Z,99.90
2019-02-24T23:16:53.025Z,99.90
2019-02-24T23:19:23.979Z,99.90
2019-02-24T23:21:55.935Z,99.90
2019-02-24T23:24:26.714Z,99.90
2019-02-24T23:26:57.563Z,99.90
2019-02-24T23:29:28.462Z,99.90
2019-02-24T23:31:59.440Z,99.90
2019-02-24T23:34:31.320Z,99.90
2019-02-24T23:37:02.256Z,99.90
2019-02-24T23:39:33.019Z,99.90
2019-02-24T23:42:03.855Z,99.90
2019-02-24T23:44:34.834Z,99.90
2019-02-24T23:47:05.679Z,99.90
2019-02-24T23:49:36.474Z,99.90
2019-02-24T23:52:07.282Z,99.90
2019-02-24T23:54:38.229Z,99.90
2019-02-24T23:57:09.104Z,99.90
2019-02-24T23:59:39.900Z,99.90
